sensor_id;sensor_type;location;lat;lon;timestamp;temperature;humidity
16491;DHT22;8356;51.214;3.270;2023-10-19T00:02:06;435.90;2355.20
16491;DHT22;8356;51.214;3.270;2023-10-19T00:04:33;435.90;2355.20
16491;DHT22;8356;51.214;3.270;2023-10-19T00:07:02;435.90;2355.20
16491;DHT22;8356;51.214;3.270;2023-10-19T00:09:30;435.90;2355.20
16491;DHT22;8356;51.214;3.270;2023-10-19T00:12:03;435.80;2355.20
16491;DHT22;8356;51.214;3.270;2023-10-19T00:14:29;435.80;2355.20
16491;DHT22;8356;51.214;3.270;2023-10-19T00:16:55;435.80;2355.20
16491;DHT22;8356;51.214;3.270;2023-10-19T00:19:26;435.80;2355.20
16491;DHT22;8356;51.214;3.270;2023-10-19T00:21:55;410.50;2355.20
16491;DHT22;8356;51.214;3.270;2023-10-19T00:24:27;435.80;2355.20
16491;DHT22;8356;51.214;3.270;2023-10-19T00:26:56;435.80;2355.20
16491;DHT22;8356;51.214;3.270;2023-10-19T00:29:22;435.70;2355.20
16491;DHT22;8356;51.214;3.270;2023-10-19T00:32:01;435.70;2355.20
16491;DHT22;8356;51.214;3.270;2023-10-19T00:34:28;435.70;2355.20
16491;DHT22;8356;51.214;3.270;2023-10-19T00:36:55;435.70;2355.20
16491;DHT22;8356;51.214;3.270;2023-10-19T00:39:27;435.70;2355.20
16491;DHT22;8356;51.214;3.270;2023-10-19T00:41:53;435.70;2355.20
16491;DHT22;8356;51.214;3.270;2023-10-19T00:44:24;435.70;2355.20
16491;DHT22;8356;51.214;3.270;2023-10-19T00:47:03;435.70;2355.20
16491;DHT22;8356;51.214;3.270;2023-10-19T00:49:33;435.60;2355.20
16491;DHT22;8356;51.214;3.270;2023-10-19T00:52:00;435.60;2355.20
16491;DHT22;8356;51.214;3.270;2023-10-19T00:54:39;435.60;2355.20
16491;DHT22;8356;51.214;3.270;2023-10-19T00:57:07;435.60;2355.20
16491;DHT22;8356;51.214;3.270;2023-10-19T00:59:38;435.60;2355.20
16491;DHT22;8356;51.214;3.270;2023-10-19T01:02:08;435.60;2355.20
16491;DHT22;8356;51.214;3.270;2023-10-19T01:04:49;435.60;2355.20
16491;DHT22;8356;51.214;3.270;2023-10-19T01:07:22;435.60;2355.20
16491;DHT22;8356;51.214;3.270;2023-10-19T01:09:55;435.60;2355.20
16491;DHT22;8356;51.214;3.270;2023-10-19T01:12:23;435.60;2355.20
16491;DHT22;8356;51.214;3.270;2023-10-19T01:15:12;435.60;2355.20
16491;DHT22;8356;51.214;3.270;2023-10-19T01:17:52;435.60;2355.20
16491;DHT22;8356;51.214;3.270;2023-10-19T01:20:20;435.30;2355.20
16491;DHT22;8356;51.214;3.270;2023-10-19T01:23:06;435.60;2355.20
16491;DHT22;8356;51.214;3.270;2023-10-19T01:28:23;435.70;2355.20
16491;DHT22;8356;51.214;3.270;2023-10-19T01:30:54;435.70;2355.20
16491;DHT22;8356;51.214;3.270;2023-10-19T01:33:21;435.70;2355.20
16491;DHT22;8356;51.214;3.270;2023-10-19T01:35:48;435.60;2355.20
16491;DHT22;8356;51.214;3.270;2023-10-19T01:38:33;435.60;2355.20
16491;DHT22;8356;51.214;3.270;2023-10-19T01:41:00;435.60;2355.20
16491;DHT22;8356;51.214;3.270;2023-10-19T01:43:29;435.60;2355.20
16491;DHT22;8356;51.214;3.270;2023-10-19T01:45:58;435.60;2355.20
16491;DHT22;8356;51.214;3.270;2023-10-19T01:48:29;435.60;2355.20
16491;DHT22;8356;51.214;3.270;2023-10-19T01:51:04;435.60;2355.20
16491;DHT22;8356;51.214;3.270;2023-10-19T01:53:31;435.60;2355.20
16491;DHT22;8356;51.214;3.270;2023-10-19T01:55:57;435.60;2355.20
16491;DHT22;8356;51.214;3.270;2023-10-19T01:58:24;435.60;2355.20
16491;DHT22;8356;51.214;3.270;2023-10-19T02:00:53;435.60;2355.20
16491;DHT22;8356;51.214;3.270;2023-10-19T02:03:26;435.60;2355.20
16491;DHT22;8356;51.214;3.270;2023-10-19T02:06:00;435.60;2355.20
16491;DHT22;8356;51.214;3.270;2023-10-19T02:08:26;435.50;2355.20
16491;DHT22;8356;51.214;3.270;2023-10-19T02:10:53;435.50;2355.20
16491;DHT22;8356;51.214;3.270;2023-10-19T02:13:19;435.50;2355.20
16491;DHT22;8356;51.214;3.270;2023-10-19T02:15:45;435.50;2355.20
16491;DHT22;8356;51.214;3.270;2023-10-19T02:18:11;435.50;2355.20
16491;DHT22;8356;51.214;3.270;2023-10-19T02:20:37;435.50;2355.20
16491;DHT22;8356;51.214;3.270;2023-10-19T02:23:07;435.50;2355.20
16491;DHT22;8356;51.214;3.270;2023-10-19T02:25:33;435.50;2355.20
16491;DHT22;8356;51.214;3.270;2023-10-19T02:28:05;435.50;2355.20
16491;DHT22;8356;51.214;3.270;2023-10-19T02:30:35;435.50;2355.20
16491;DHT22;8356;51.214;3.270;2023-10-19T02:33:01;435.50;2355.20
16491;DHT22;8356;51.214;3.270;2023-10-19T02:35:28;435.50;2355.20
16491;DHT22;8356;51.214;3.270;2023-10-19T02:37:54;435.50;2355.20
16491;DHT22;8356;51.214;3.270;2023-10-19T02:40:20;435.50;2355.20
16491;DHT22;8356;51.214;3.270;2023-10-19T02:42:48;435.50;2355.20
16491;DHT22;8356;51.214;3.270;2023-10-19T02:45:15;435.50;2355.20
16491;DHT22;8356;51.214;3.270;2023-10-19T02:47:43;435.50;2355.20
16491;DHT22;8356;51.214;3.270;2023-10-19T02:50:09;435.50;2355.20
16491;DHT22;8356;51.214;3.270;2023-10-19T02:52:39;435.40;2355.20
16491;DHT22;8356;51.214;3.270;2023-10-19T02:55:07;435.40;2355.20
16491;DHT22;8356;51.214;3.270;2023-10-19T02:57:32;435.40;2355.20
16491;DHT22;8356;51.214;3.270;2023-10-19T02:59:58;435.40;2355.20
16491;DHT22;8356;51.214;3.270;2023-10-19T03:02:24;435.40;2355.20
16491;DHT22;8356;51.214;3.270;2023-10-19T03:04:54;435.40;2355.20
16491;DHT22;8356;51.214;3.270;2023-10-19T03:07:20;435.40;2355.20
16491;DHT22;8356;51.214;3.270;2023-10-19T03:09:46;435.50;2355.20
16491;DHT22;8356;51.214;3.270;2023-10-19T03:12:14;435.50;2355.20
16491;DHT22;8356;51.214;3.270;2023-10-19T03:14:40;435.50;2355.20
16491;DHT22;8356;51.214;3.270;2023-10-19T03:17:13;435.50;2355.20
16491;DHT22;8356;51.214;3.270;2023-10-19T03:19:39;435.40;2355.20
16491;DHT22;8356;51.214;3.270;2023-10-19T03:22:04;435.40;2355.20
16491;DHT22;8356;51.214;3.270;2023-10-19T03:24:31;435.40;2355.20
16491;DHT22;8356;51.214;3.270;2023-10-19T03:27:12;435.40;2355.20
16491;DHT22;8356;51.214;3.270;2023-10-19T03:29:41;435.40;2355.20
16491;DHT22;8356;51.214;3.270;2023-10-19T03:32:11;435.40;2355.20
16491;DHT22;8356;51.214;3.270;2023-10-19T03:34:38;435.40;2355.20
16491;DHT22;8356;51.214;3.270;2023-10-19T03:37:04;435.40;2355.20
16491;DHT22;8356;51.214;3.270;2023-10-19T03:39:37;435.40;2355.20
16491;DHT22;8356;51.214;3.270;2023-10-19T03:42:04;435.50;2355.20
16491;DHT22;8356;51.214;3.270;2023-10-19T03:44:32;435.50;2355.20
16491;DHT22;8356;51.214;3.270;2023-10-19T03:47:13;435.50;2355.20
16491;DHT22;8356;51.214;3.270;2023-10-19T03:49:44;435.50;2355.20
16491;DHT22;8356;51.214;3.270;2023-10-19T03:52:09;435.50;2355.20
16491;DHT22;8356;51.214;3.270;2023-10-19T03:54:36;435.50;2355.20
16491;DHT22;8356;51.214;3.270;2023-10-19T03:57:10;435.50;2355.20
16491;DHT22;8356;51.214;3.270;2023-10-19T03:59:45;435.50;2355.20
16491;DHT22;8356;51.214;3.270;2023-10-19T04:02:12;435.50;2355.20
16491;DHT22;8356;51.214;3.270;2023-10-19T04:04:47;435.50;2355.20
16491;DHT22;8356;51.214;3.270;2023-10-19T04:07:18;435.50;2355.20
16491;DHT22;8356;51.214;3.270;2023-10-19T04:09:44;435.50;2355.20
16491;DHT22;8356;51.214;3.270;2023-10-19T04:12:28;435.50;2355.20
16491;DHT22;8356;51.214;3.270;2023-10-19T04:14:57;435.60;2355.20
16491;DHT22;8356;51.214;3.270;2023-10-19T04:17:23;435.60;2355.20
16491;DHT22;8356;51.214;3.270;2023-10-19T04:19:50;435.60;2355.20
16491;DHT22;8356;51.214;3.270;2023-10-19T04:22:17;435.60;2355.20
16491;DHT22;8356;51.214;3.270;2023-10-19T04:24:52;435.50;2355.20
16491;DHT22;8356;51.214;3.270;2023-10-19T04:27:18;435.60;2355.20
16491;DHT22;8356;51.214;3.270;2023-10-19T04:29:49;435.60;2355.20
16491;DHT22;8356;51.214;3.270;2023-10-19T04:32:16;435.60;2355.20
16491;DHT22;8356;51.214;3.270;2023-10-19T04:34:50;435.60;2355.20
16491;DHT22;8356;51.214;3.270;2023-10-19T04:37:15;435.60;2355.20
16491;DHT22;8356;51.214;3.270;2023-10-19T04:39:44;435.60;2355.20
16491;DHT22;8356;51.214;3.270;2023-10-19T04:42:10;435.60;2355.20
16491;DHT22;8356;51.214;3.270;2023-10-19T04:44:35;435.60;2355.20
16491;DHT22;8356;51.214;3.270;2023-10-19T04:47:01;435.60;2355.20
16491;DHT22;8356;51.214;3.270;2023-10-19T04:49:27;435.60;2355.20
16491;DHT22;8356;51.214;3.270;2023-10-19T04:51:53;435.60;2355.20
16491;DHT22;8356;51.214;3.270;2023-10-19T04:54:19;435.60;2355.20
16491;DHT22;8356;51.214;3.270;2023-10-19T04:56:45;435.60;2355.20
16491;DHT22;8356;51.214;3.270;2023-10-19T04:59:10;435.60;2355.20
16491;DHT22;8356;51.214;3.270;2023-10-19T05:01:36;435.60;2355.20
16491;DHT22;8356;51.214;3.270;2023-10-19T05:04:02;435.60;2355.20
16491;DHT22;8356;51.214;3.270;2023-10-19T05:06:28;435.60;2355.20
16491;DHT22;8356;51.214;3.270;2023-10-19T05:08:54;435.60;2355.20
16491;DHT22;8356;51.214;3.270;2023-10-19T05:11:20;435.60;2355.20
16491;DHT22;8356;51.214;3.270;2023-10-19T05:13:45;435.60;2355.20
16491;DHT22;8356;51.214;3.270;2023-10-19T05:16:11;435.60;2355.20
16491;DHT22;8356;51.214;3.270;2023-10-19T05:18:37;435.60;2355.20
16491;DHT22;8356;51.214;3.270;2023-10-19T05:21:02;435.50;2355.20
16491;DHT22;8356;51.214;3.270;2023-10-19T05:23:29;435.50;2355.20
16491;DHT22;8356;51.214;3.270;2023-10-19T05:26:03;435.50;2355.20
16491;DHT22;8356;51.214;3.270;2023-10-19T05:28:30;435.50;2355.20
16491;DHT22;8356;51.214;3.270;2023-10-19T05:30:56;435.50;2355.20
16491;DHT22;8356;51.214;3.270;2023-10-19T05:33:22;435.50;2355.20
16491;DHT22;8356;51.214;3.270;2023-10-19T05:35:49;435.40;2355.20
16491;DHT22;8356;51.214;3.270;2023-10-19T05:38:15;435.40;2355.20
16491;DHT22;8356;51.214;3.270;2023-10-19T05:40:42;435.40;2355.20
16491;DHT22;8356;51.214;3.270;2023-10-19T05:43:11;435.40;2355.20
16491;DHT22;8356;51.214;3.270;2023-10-19T05:45:38;435.50;2355.20
16491;DHT22;8356;51.214;3.270;2023-10-19T05:48:04;460.90;2380.80
16491;DHT22;8356;51.214;3.270;2023-10-19T05:50:32;435.30;2355.20
16491;DHT22;8356;51.214;3.270;2023-10-19T05:52:58;435.40;2355.20
16491;DHT22;8356;51.214;3.270;2023-10-19T05:55:24;435.40;2355.20
16491;DHT22;8356;51.214;3.270;2023-10-19T05:57:49;435.30;2355.20
16491;DHT22;8356;51.214;3.270;2023-10-19T06:00:15;435.30;2355.20
16491;DHT22;8356;51.214;3.270;2023-10-19T06:02:43;435.40;2355.20
16491;DHT22;8356;51.214;3.270;2023-10-19T06:05:13;435.30;2355.20
16491;DHT22;8356;51.214;3.270;2023-10-19T06:07:44;435.20;2355.20
16491;DHT22;8356;51.214;3.270;2023-10-19T06:10:12;435.20;2355.20
16491;DHT22;8356;51.214;3.270;2023-10-19T06:12:42;435.20;2355.20
16491;DHT22;8356;51.214;3.270;2023-10-19T06:15:09;435.20;2355.20
16491;DHT22;8356;51.214;3.270;2023-10-19T06:17:39;435.20;2355.20
16491;DHT22;8356;51.214;3.270;2023-10-19T06:20:10;435.20;2355.20
16491;DHT22;8356;51.214;3.270;2023-10-19T06:23:08;435.20;2355.20
16491;DHT22;8356;51.214;3.270;2023-10-19T06:25:34;435.20;2355.20
16491;DHT22;8356;51.214;3.270;2023-10-19T06:28:00;435.20;2355.20
16491;DHT22;8356;51.214;3.270;2023-10-19T06:30:27;435.20;2355.20
16491;DHT22;8356;51.214;3.270;2023-10-19T06:32:57;435.20;2355.20
16491;DHT22;8356;51.214;3.270;2023-10-19T06:35:27;435.20;2355.20
16491;DHT22;8356;51.214;3.270;2023-10-19T06:37:54;435.20;2355.20
16491;DHT22;8356;51.214;3.270;2023-10-19T06:40:20;435.20;2355.20
16491;DHT22;8356;51.214;3.270;2023-10-19T06:42:47;435.20;2355.20
16491;DHT22;8356;51.214;3.270;2023-10-19T06:45:15;435.20;2355.20
16491;DHT22;8356;51.214;3.270;2023-10-19T06:47:48;435.20;2355.20
16491;DHT22;8356;51.214;3.270;2023-10-19T06:50:17;435.20;2355.20
16491;DHT22;8356;51.214;3.270;2023-10-19T06:52:44;435.20;2355.20
16491;DHT22;8356;51.214;3.270;2023-10-19T06:55:10;435.30;2355.20
16491;DHT22;8356;51.214;3.270;2023-10-19T06:57:42;435.40;2355.20
16491;DHT22;8356;51.214;3.270;2023-10-19T07:00:10;435.40;2355.20
16491;DHT22;8356;51.214;3.270;2023-10-19T07:02:43;435.40;2355.20
16491;DHT22;8356;51.214;3.270;2023-10-19T07:05:10;435.40;2355.20
16491;DHT22;8356;51.214;3.270;2023-10-19T07:07:45;435.40;2355.20
16491;DHT22;8356;51.214;3.270;2023-10-19T07:10:14;435.40;2355.20
16491;DHT22;8356;51.214;3.270;2023-10-19T07:12:42;435.40;2355.20
16491;DHT22;8356;51.214;3.270;2023-10-19T07:15:09;435.40;2355.20
16491;DHT22;8356;51.214;3.270;2023-10-19T07:17:42;435.40;2355.20
16491;DHT22;8356;51.214;3.270;2023-10-19T07:20:09;435.50;2355.20
16491;DHT22;8356;51.214;3.270;2023-10-19T07:22:47;435.60;2355.20
16491;DHT22;8356;51.214;3.270;2023-10-19T07:25:13;435.60;2355.20
16491;DHT22;8356;51.214;3.270;2023-10-19T07:27:39;435.60;2355.20
16491;DHT22;8356;51.214;3.270;2023-10-19T07:30:08;435.60;2355.20
16491;DHT22;8356;51.214;3.270;2023-10-19T07:32:35;435.60;2355.20
16491;DHT22;8356;51.214;3.270;2023-10-19T07:35:01;435.60;2355.20
16491;DHT22;8356;51.214;3.270;2023-10-19T07:37:26;435.60;2355.20
16491;DHT22;8356;51.214;3.270;2023-10-19T07:39:54;435.60;2355.20
16491;DHT22;8356;51.214;3.270;2023-10-19T07:42:22;435.60;2355.20
16491;DHT22;8356;51.214;3.270;2023-10-19T07:44:48;435.60;2355.20
16491;DHT22;8356;51.214;3.270;2023-10-19T07:47:14;435.60;2355.20
16491;DHT22;8356;51.214;3.270;2023-10-19T07:49:40;435.70;2355.20
16491;DHT22;8356;51.214;3.270;2023-10-19T07:52:07;435.70;2355.20
16491;DHT22;8356;51.214;3.270;2023-10-19T07:54:38;435.70;2355.20
16491;DHT22;8356;51.214;3.270;2023-10-19T07:57:04;435.80;2355.20
16491;DHT22;8356;51.214;3.270;2023-10-19T07:59:33;435.80;2355.20
16491;DHT22;8356;51.214;3.270;2023-10-19T08:02:00;435.90;2355.20
16491;DHT22;8356;51.214;3.270;2023-10-19T08:04:30;435.90;2355.20
16491;DHT22;8356;51.214;3.270;2023-10-19T08:06:57;436.10;2355.20
16491;DHT22;8356;51.214;3.270;2023-10-19T08:09:23;460.80;2380.80
16491;DHT22;8356;51.214;3.270;2023-10-19T08:11:50;460.90;2380.80
16491;DHT22;8356;51.214;3.270;2023-10-19T08:14:24;460.80;2380.80
16491;DHT22;8356;51.214;3.270;2023-10-19T08:16:50;460.80;2380.80
16491;DHT22;8356;51.214;3.270;2023-10-19T08:19:16;460.90;2380.80
16491;DHT22;8356;51.214;3.270;2023-10-19T08:21:43;461.00;2380.80
16491;DHT22;8356;51.214;3.270;2023-10-19T08:24:09;461.20;2380.80
16491;DHT22;8356;51.214;3.270;2023-10-19T08:26:42;461.40;2380.80
16491;DHT22;8356;51.214;3.270;2023-10-19T08:29:08;461.50;2380.80
16491;DHT22;8356;51.214;3.270;2023-10-19T08:31:42;461.50;2380.80
16491;DHT22;8356;51.214;3.270;2023-10-19T08:34:08;461.60;2380.80
16491;DHT22;8356;51.214;3.270;2023-10-19T08:36:35;461.60;2380.80
16491;DHT22;8356;51.214;3.270;2023-10-19T08:39:04;461.60;2380.80
16491;DHT22;8356;51.214;3.270;2023-10-19T08:41:35;461.60;2380.80
16491;DHT22;8356;51.214;3.270;2023-10-19T08:44:06;461.60;2380.80
16491;DHT22;8356;51.214;3.270;2023-10-19T08:46:43;461.60;2380.80
16491;DHT22;8356;51.214;3.270;2023-10-19T08:49:16;461.70;2380.80
16491;DHT22;8356;51.214;3.270;2023-10-19T08:51:44;461.70;2380.80
16491;DHT22;8356;51.214;3.270;2023-10-19T08:54:12;461.70;2380.80
16491;DHT22;8356;51.214;3.270;2023-10-19T08:56:38;461.70;2380.80
16491;DHT22;8356;51.214;3.270;2023-10-19T08:59:09;461.70;2380.80
16491;DHT22;8356;51.214;3.270;2023-10-19T09:01:37;461.60;2380.80
16491;DHT22;8356;51.214;3.270;2023-10-19T09:04:03;461.60;2380.80
16491;DHT22;8356;51.214;3.270;2023-10-19T09:06:33;461.70;2380.80
16491;DHT22;8356;51.214;3.270;2023-10-19T09:09:09;461.70;2380.80
16491;DHT22;8356;51.214;3.270;2023-10-19T09:11:45;486.40;2380.80
16491;DHT22;8356;51.214;3.270;2023-10-19T09:14:12;486.50;2380.80
16491;DHT22;8356;51.214;3.270;2023-10-19T09:16:52;486.80;2380.80
16491;DHT22;8356;51.214;3.270;2023-10-19T09:19:24;486.70;2380.80
16491;DHT22;8356;51.214;3.270;2023-10-19T09:22:01;486.70;2380.80
16491;DHT22;8356;51.214;3.270;2023-10-19T09:24:36;486.70;2380.80
16491;DHT22;8356;51.214;3.270;2023-10-19T09:27:03;486.70;2380.80
16491;DHT22;8356;51.214;3.270;2023-10-19T09:29:29;486.50;2380.80
16491;DHT22;8356;51.214;3.270;2023-10-19T09:31:58;486.70;2380.80
16491;DHT22;8356;51.214;3.270;2023-10-19T09:34:29;486.70;2380.80
16491;DHT22;8356;51.214;3.270;2023-10-19T09:37:00;486.70;2380.80
16491;DHT22;8356;51.214;3.270;2023-10-19T09:39:32;486.60;2380.80
16491;DHT22;8356;51.214;3.270;2023-10-19T09:42:10;486.60;2380.80
16491;DHT22;8356;51.214;3.270;2023-10-19T09:44:44;486.80;2380.80
16491;DHT22;8356;51.214;3.270;2023-10-19T09:47:13;486.50;2380.80
16491;DHT22;8356;51.214;3.270;2023-10-19T09:49:43;486.50;2380.80
16491;DHT22;8356;51.214;3.270;2023-10-19T09:52:10;486.60;2380.80
16491;DHT22;8356;51.214;3.270;2023-10-19T09:54:59;486.60;2380.80
16491;DHT22;8356;51.214;3.270;2023-10-19T09:57:36;486.70;2380.80
16491;DHT22;8356;51.214;3.270;2023-10-19T10:00:04;486.70;2380.80
16491;DHT22;8356;51.214;3.270;2023-10-19T10:02:38;486.70;2380.80
16491;DHT22;8356;51.214;3.270;2023-10-19T10:05:04;486.70;2380.80
16491;DHT22;8356;51.214;3.270;2023-10-19T10:07:30;486.70;2380.80
16491;DHT22;8356;51.214;3.270;2023-10-19T10:09:56;486.70;2380.80
16491;DHT22;8356;51.214;3.270;2023-10-19T10:12:25;486.70;2380.80
16491;DHT22;8356;51.214;3.270;2023-10-19T10:15:00;486.70;2380.80
16491;DHT22;8356;51.214;3.270;2023-10-19T10:17:37;486.70;2380.80
16491;DHT22;8356;51.214;3.270;2023-10-19T10:22:39;486.70;2380.80
16491;DHT22;8356;51.214;3.270;2023-10-19T10:25:05;486.70;2380.80
16491;DHT22;8356;51.214;3.270;2023-10-19T10:27:31;486.70;2380.80
16491;DHT22;8356;51.214;3.270;2023-10-19T10:29:58;486.70;2380.80
16491;DHT22;8356;51.214;3.270;2023-10-19T10:32:47;486.70;2380.80
16491;DHT22;8356;51.214;3.270;2023-10-19T10:38:08;486.70;2380.80
16491;DHT22;8356;51.214;3.270;2023-10-19T10:40:46;486.70;2380.80
16491;DHT22;8356;51.214;3.270;2023-10-19T10:43:13;486.70;2380.80
16491;DHT22;8356;51.214;3.270;2023-10-19T10:45:39;486.80;2380.80
16491;DHT22;8356;51.214;3.270;2023-10-19T10:48:14;486.90;2380.80
16491;DHT22;8356;51.214;3.270;2023-10-19T10:50:40;486.80;2380.80
16491;DHT22;8356;51.214;3.270;2023-10-19T10:53:08;486.90;2380.80
16491;DHT22;8356;51.214;3.270;2023-10-19T10:55:34;486.80;2380.80
16491;DHT22;8356;51.214;3.270;2023-10-19T10:58:00;486.80;2380.80
16491;DHT22;8356;51.214;3.270;2023-10-19T11:00:26;486.80;2380.80
16491;DHT22;8356;51.214;3.270;2023-10-19T11:03:00;486.80;2380.80
16491;DHT22;8356;51.214;3.270;2023-10-19T11:05:26;487.10;2380.80
16491;DHT22;8356;51.214;3.270;2023-10-19T11:08:11;487.00;2380.80
16491;DHT22;8356;51.214;3.270;2023-10-19T11:10:44;487.10;2380.80
16491;DHT22;8356;51.214;3.270;2023-10-19T11:13:13;487.30;2380.80
16491;DHT22;8356;51.214;3.270;2023-10-19T11:15:50;512.00;2380.80
16491;DHT22;8356;51.214;3.270;2023-10-19T11:21:06;512.30;2380.80
16491;DHT22;8356;51.214;3.270;2023-10-19T11:26:04;512.30;2380.80
16491;DHT22;8356;51.214;3.270;2023-10-19T11:28:31;512.30;2380.80
16491;DHT22;8356;51.214;3.270;2023-10-19T11:31:17;512.20;2380.80
16491;DHT22;8356;51.214;3.270;2023-10-19T11:33:47;512.20;2380.80
16491;DHT22;8356;51.214;3.270;2023-10-19T11:36:17;512.10;2380.80
16491;DHT22;8356;51.214;3.270;2023-10-19T11:38:45;512.00;2380.80
16491;DHT22;8356;51.214;3.270;2023-10-19T11:41:14;512.00;2380.80
16491;DHT22;8356;51.214;3.270;2023-10-19T11:43:41;487.30;2380.80
16491;DHT22;8356;51.214;3.270;2023-10-19T11:46:08;487.30;2380.80
16491;DHT22;8356;51.214;3.270;2023-10-19T11:48:35;487.30;2380.80
16491;DHT22;8356;51.214;3.270;2023-10-19T11:51:04;512.30;2380.80
16491;DHT22;8356;51.214;3.270;2023-10-19T11:53:34;487.30;2380.80
16491;DHT22;8356;51.214;3.270;2023-10-19T11:56:04;487.30;2380.80
16491;DHT22;8356;51.214;3.270;2023-10-19T11:58:33;487.30;2380.80
16491;DHT22;8356;51.214;3.270;2023-10-19T12:01:05;512.00;2380.80
16491;DHT22;8356;51.214;3.270;2023-10-19T12:03:34;512.00;2380.80
16491;DHT22;8356;51.214;3.270;2023-10-19T12:06:06;512.00;2380.80
16491;DHT22;8356;51.214;3.270;2023-10-19T12:08:35;512.00;2380.80
16491;DHT22;8356;51.214;3.270;2023-10-19T12:11:01;512.00;2380.80
16491;DHT22;8356;51.214;3.270;2023-10-19T12:13:29;512.00;2380.80
16491;DHT22;8356;51.214;3.270;2023-10-19T12:15:54;512.00;2380.80
16491;DHT22;8356;51.214;3.270;2023-10-19T12:18:23;512.00;2380.80
16491;DHT22;8356;51.214;3.270;2023-10-19T12:20:48;512.10;2380.80
16491;DHT22;8356;51.214;3.270;2023-10-19T12:23:14;512.20;2380.80
16491;DHT22;8356;51.214;3.270;2023-10-19T12:25:40;512.40;2380.80
16491;DHT22;8356;51.214;3.270;2023-10-19T12:28:08;512.40;2380.80
16491;DHT22;8356;51.214;3.270;2023-10-19T12:30:33;512.40;2380.80
16491;DHT22;8356;51.214;3.270;2023-10-19T12:33:04;512.40;2380.80
16491;DHT22;8356;51.214;3.270;2023-10-19T12:35:41;512.40;2380.80
16491;DHT22;8356;51.214;3.270;2023-10-19T12:38:11;512.30;2380.80
16491;DHT22;8356;51.214;3.270;2023-10-19T12:40:45;512.20;2380.80
16491;DHT22;8356;51.214;3.270;2023-10-19T12:43:12;512.20;2380.80
16491;DHT22;8356;51.214;3.270;2023-10-19T12:45:39;512.20;2380.80
16491;DHT22;8356;51.214;3.270;2023-10-19T12:48:06;487.10;2380.80
16491;DHT22;8356;51.214;3.270;2023-10-19T12:50:33;512.20;2380.80
16491;DHT22;8356;51.214;3.270;2023-10-19T12:52:59;512.20;2380.80
16491;DHT22;8356;51.214;3.270;2023-10-19T12:55:26;512.20;2380.80
16491;DHT22;8356;51.214;3.270;2023-10-19T12:57:56;512.20;2380.80
16491;DHT22;8356;51.214;3.270;2023-10-19T13:00:23;512.20;2380.80
16491;DHT22;8356;51.214;3.270;2023-10-19T13:02:50;512.20;2380.80
16491;DHT22;8356;51.214;3.270;2023-10-19T13:05:16;512.20;2380.80
16491;DHT22;8356;51.214;3.270;2023-10-19T13:07:46;512.20;2380.80
16491;DHT22;8356;51.214;3.270;2023-10-19T13:10:12;512.30;2380.80
16491;DHT22;8356;51.214;3.270;2023-10-19T13:12:38;512.50;2380.80
16491;DHT22;8356;51.214;3.270;2023-10-19T13:15:04;512.70;2380.80
16491;DHT22;8356;51.214;3.270;2023-10-19T13:17:39;512.70;2380.80
16491;DHT22;8356;51.214;3.270;2023-10-19T13:20:05;537.70;2406.40
16491;DHT22;8356;51.214;3.270;2023-10-19T13:22:41;537.80;2406.40
16491;DHT22;8356;51.214;3.270;2023-10-19T13:25:07;538.00;2406.40
16491;DHT22;8356;51.214;3.270;2023-10-19T13:27:35;538.10;2406.40
16491;DHT22;8356;51.214;3.270;2023-10-19T13:30:00;538.00;2406.40
16491;DHT22;8356;51.214;3.270;2023-10-19T13:32:29;538.00;2406.40
16491;DHT22;8356;51.214;3.270;2023-10-19T13:34:56;537.90;2406.40
16491;DHT22;8356;51.214;3.270;2023-10-19T13:37:22;537.80;2406.40
16491;DHT22;8356;51.214;3.270;2023-10-19T13:39:48;537.80;2406.40
16491;DHT22;8356;51.214;3.270;2023-10-19T13:42:14;537.70;2406.40
16491;DHT22;8356;51.214;3.270;2023-10-19T13:44:40;537.60;2406.40
16491;DHT22;8356;51.214;3.270;2023-10-19T13:47:05;512.90;2380.80
16491;DHT22;8356;51.214;3.270;2023-10-19T13:49:34;512.90;2380.80
16491;DHT22;8356;51.214;3.270;2023-10-19T13:52:00;512.80;2380.80
16491;DHT22;8356;51.214;3.270;2023-10-19T13:54:26;512.80;2380.80
16491;DHT22;8356;51.214;3.270;2023-10-19T13:56:52;512.80;2380.80
16491;DHT22;8356;51.214;3.270;2023-10-19T13:59:18;512.90;2380.80
16491;DHT22;8356;51.214;3.270;2023-10-19T14:01:44;512.90;2380.80
16491;DHT22;8356;51.214;3.270;2023-10-19T14:04:09;537.60;2406.40
16491;DHT22;8356;51.214;3.270;2023-10-19T14:06:35;537.70;2406.40
16491;DHT22;8356;51.214;3.270;2023-10-19T14:09:01;537.70;2406.40
16491;DHT22;8356;51.214;3.270;2023-10-19T14:11:27;537.70;2406.40
16491;DHT22;8356;51.214;3.270;2023-10-19T14:13:53;537.70;2406.40
16491;DHT22;8356;51.214;3.270;2023-10-19T14:16:18;537.70;2406.40
16491;DHT22;8356;51.214;3.270;2023-10-19T14:18:44;537.70;2406.40
16491;DHT22;8356;51.214;3.270;2023-10-19T14:21:17;537.70;2406.40
16491;DHT22;8356;51.214;3.270;2023-10-19T14:23:44;537.70;2406.40
16491;DHT22;8356;51.214;3.270;2023-10-19T14:26:11;537.60;2406.40
16491;DHT22;8356;51.214;3.270;2023-10-19T14:28:37;537.60;2406.40
16491;DHT22;8356;51.214;3.270;2023-10-19T14:31:04;512.90;2380.80
16491;DHT22;8356;51.214;3.270;2023-10-19T14:33:30;512.90;2380.80
16491;DHT22;8356;51.214;3.270;2023-10-19T14:35:56;512.90;2380.80
16491;DHT22;8356;51.214;3.270;2023-10-19T14:38:21;512.90;2380.80
16491;DHT22;8356;51.214;3.270;2023-10-19T14:40:51;512.90;2380.80
16491;DHT22;8356;51.214;3.270;2023-10-19T14:43:16;512.90;2380.80
16491;DHT22;8356;51.214;3.270;2023-10-19T14:45:42;512.90;2380.80
16491;DHT22;8356;51.214;3.270;2023-10-19T14:48:08;512.90;2380.80
16491;DHT22;8356;51.214;3.270;2023-10-19T14:50:36;512.80;2380.80
16491;DHT22;8356;51.214;3.270;2023-10-19T14:53:02;512.80;2380.80
16491;DHT22;8356;51.214;3.270;2023-10-19T14:55:28;512.80;2380.80
16491;DHT22;8356;51.214;3.270;2023-10-19T14:57:55;512.80;2380.80
16491;DHT22;8356;51.214;3.270;2023-10-19T15:00:22;512.80;2380.80
16491;DHT22;8356;51.214;3.270;2023-10-19T15:02:53;512.80;2380.80
16491;DHT22;8356;51.214;3.270;2023-10-19T15:05:22;512.80;2380.80
16491;DHT22;8356;51.214;3.270;2023-10-19T15:07:50;512.70;2380.80
16491;DHT22;8356;51.214;3.270;2023-10-19T15:10:25;512.70;2380.80
16491;DHT22;8356;51.214;3.270;2023-10-19T15:12:54;512.60;2380.80
16491;DHT22;8356;51.214;3.270;2023-10-19T15:15:22;512.60;2380.80
16491;DHT22;8356;51.214;3.270;2023-10-19T15:17:48;487.30;2380.80
16491;DHT22;8356;51.214;3.270;2023-10-19T15:20:16;512.60;2380.80
16491;DHT22;8356;51.214;3.270;2023-10-19T15:22:42;512.70;2380.80
16491;DHT22;8356;51.214;3.270;2023-10-19T15:25:09;512.60;2380.80
16491;DHT22;8356;51.214;3.270;2023-10-19T15:27:40;512.60;2380.80